createdAt,value
2023-01-18T00:03:36.427Z,14.85
2023-01-18T00:08:39.590Z,13.70
2023-01-18T00:13:41.593Z,12.15
2023-01-18T00:18:44.321Z,11.10
2023-01-18T00:23:46.025Z,12.75
2023-01-18T00:28:47.661Z,11.70
2023-01-18T00:33:50.051Z,12.15
2023-01-18T00:38:52.467Z,11.35
2023-01-18T00:43:54.416Z,9.98
2023-01-18T00:48:57.364Z,12.65
2023-01-18T00:53:58.951Z,11.63
2023-01-18T00:59:00.594Z,10.48
2023-01-18T01:04:20.620Z,9.60
2023-01-18T01:09:28.976Z,10.65
2023-01-18T01:14:50.302Z,11.52
2023-01-18T01:20:10.549Z,10.48
2023-01-18T01:25:30.855Z,11.02
2023-01-18T01:30:32.476Z,10.23
2023-01-18T01:35:34.105Z,10.07
2023-01-18T01:40:35.764Z,9.07
2023-01-18T01:45:37.563Z,10.32
2023-01-18T01:50:40.027Z,9.75
2023-01-18T01:55:42.537Z,8.55
2023-01-18T02:00:44.637Z,9.38
2023-01-18T02:05:50.801Z,11.27
2023-01-18T02:10:52.821Z,11.05
2023-01-18T02:16:13.447Z,10.25
2023-01-18T02:21:46.915Z,11.30
2023-01-18T02:27:17.637Z,11.10
2023-01-18T02:32:38.061Z,12.13
2023-01-18T02:38:02.003Z,12.65
2023-01-18T02:43:26.479Z,12.07
2023-01-18T02:48:34.925Z,11.73
2023-01-18T02:53:44.763Z,10.70
2023-01-18T02:58:51.300Z,10.48
2023-01-18T03:04:02.079Z,9.77
2023-01-18T03:09:03.903Z,9.68
2023-01-18T03:14:20.650Z,10.68
2023-01-18T03:19:42.896Z,9.57
2023-01-18T03:24:46.033Z,9.88
2023-01-18T03:30:06.185Z,9.02
2023-01-18T03:35:14.819Z,9.30
2023-01-18T03:40:23.721Z,9.85
2023-01-18T03:45:35.011Z,9.95
2023-01-18T03:50:49.679Z,10.35
2023-01-18T03:55:56.844Z,12.52
2023-01-18T04:00:58.807Z,13.52
2023-01-18T04:06:02.543Z,12.70
2023-01-18T04:11:04.233Z,12.85
2023-01-18T04:16:06.087Z,11.70
2023-01-18T04:21:07.729Z,11.57
2023-01-18T04:26:09.462Z,12.05
2023-01-18T04:31:11.132Z,12.27
2023-01-18T04:36:12.801Z,14.55
2023-01-18T04:41:14.459Z,13.13
2023-01-18T04:46:16.111Z,13.48
2023-01-18T04:51:18.795Z,12.25
2023-01-18T04:56:20.415Z,13.65
2023-01-18T05:01:22.721Z,13.20
2023-01-18T05:06:24.662Z,13.82
2023-01-18T05:11:27.154Z,12.43
2023-01-18T05:16:28.876Z,12.95
2023-01-18T05:21:30.547Z,13.18
2023-01-18T05:26:32.174Z,13.05
2023-01-18T05:31:33.921Z,13.40
2023-01-18T05:36:35.679Z,14.07
2023-01-18T05:41:37.303Z,12.65
2023-01-18T05:46:38.896Z,15.10
2023-01-18T05:51:40.516Z,13.10
2023-01-18T05:56:42.344Z,13.63
2023-01-18T06:01:43.985Z,13.25
2023-01-18T06:06:45.601Z,14.25
2023-01-18T06:11:47.227Z,14.15
2023-01-18T06:16:48.819Z,13.82
2023-01-18T06:21:50.422Z,14.32
2023-01-18T06:26:52.027Z,14.98
2023-01-18T06:31:53.869Z,14.18
2023-01-18T06:36:55.543Z,13.70
2023-01-18T06:41:57.430Z,13.65
2023-01-18T06:46:59.301Z,12.90
2023-01-18T06:52:00.946Z,14.73
2023-01-18T06:57:02.611Z,13.82
2023-01-18T07:02:05.075Z,14.35
2023-01-18T07:07:08.012Z,15.18
2023-01-18T07:12:09.680Z,17.25
2023-01-18T07:17:11.336Z,16.90
2023-01-18T07:22:13.427Z,16.70
2023-01-18T07:27:15.111Z,17.98
2023-01-18T07:32:16.779Z,20.38
2023-01-18T07:37:18.367Z,20.02
2023-01-18T07:42:20.002Z,17.77
2023-01-18T07:47:21.729Z,17.17
2023-01-18T07:52:23.360Z,15.02
2023-01-18T07:57:25.868Z,15.40
2023-01-18T08:02:27.528Z,15.07
2023-01-18T08:07:32.549Z,15.70
2023-01-18T08:12:34.182Z,15.45
2023-01-18T08:17:35.806Z,14.50
2023-01-18T08:22:37.421Z,15.23
2023-01-18T08:27:39.048Z,15.73
2023-01-18T08:32:40.993Z,16.38
2023-01-18T08:37:42.589Z,16.05
2023-01-18T08:42:44.469Z,16.67
2023-01-18T08:47:46.537Z,16.50
2023-01-18T08:52:48.143Z,15.27
2023-01-18T08:57:50.267Z,15.40
2023-01-18T09:02:52.173Z,16.30
2023-01-18T09:07:54.926Z,15.10
2023-01-18T09:12:57.111Z,14.70
2023-01-18T09:17:59.844Z,15.65
2023-01-18T09:23:10.250Z,17.88
2023-01-18T09:28:13.120Z,14.68
2023-01-18T09:33:14.924Z,15.05
2023-01-18T09:38:16.506Z,15.32
2023-01-18T09:43:27.563Z,13.65
2023-01-18T09:48:31.376Z,15.15
2023-01-18T09:53:38.877Z,15.70
2023-01-18T09:58:46.920Z,17.63
2023-01-18T10:04:19.244Z,16.10
2023-01-18T10:09:25.849Z,16.85
2023-01-18T10:14:53.154Z,17.25
2023-01-18T10:19:54.759Z,15.75
2023-01-18T10:25:05.488Z,16.67
2023-01-18T10:30:25.843Z,14.68
2023-01-18T10:35:36.550Z,17.95
2023-01-18T10:40:40.726Z,15.98
2023-01-18T10:45:44.220Z,15.77
2023-01-18T10:50:53.553Z,16.52
2023-01-18T10:56:18.371Z,17.48
2023-01-18T11:01:23.671Z,14.80
2023-01-18T11:06:26.391Z,14.57
2023-01-18T11:11:50.061Z,15.85
2023-01-18T11:17:11.512Z,15.73
2023-01-18T11:22:16.982Z,15.30
2023-01-18T11:27:24.833Z,16.02
2023-01-18T11:32:29.890Z,17.55
2023-01-18T11:37:35.374Z,16.52
2023-01-18T11:42:40.489Z,17.77
2023-01-18T11:47:51.137Z,23.35
2023-01-18T11:52:55.251Z,19.55
2023-01-18T11:57:59.044Z,17.55
2023-01-18T12:03:29.365Z,17.70
2023-01-18T12:08:38.358Z,16.75
2023-01-18T12:13:47.207Z,17.52
2023-01-18T12:18:57.713Z,18.40
2023-01-18T12:24:15.862Z,18.85
2023-01-18T12:29:51.268Z,16.33
2023-01-18T12:35:15.563Z,19.50
2023-01-18T12:40:40.444Z,17.40
2023-01-18T12:45:57.277Z,18.05
2023-01-18T12:51:01.006Z,18.77
2023-01-18T12:56:13.077Z,17.02
2023-01-18T13:01:21.806Z,18.52
2023-01-18T13:06:25.992Z,18.02
2023-01-18T13:11:33.139Z,18.30
2023-01-18T13:17:03.985Z,18.30
2023-01-18T13:22:35.210Z,17.48
2023-01-18T13:27:37.878Z,16.70
2023-01-18T13:32:42.390Z,16.83
2023-01-18T13:37:56.417Z,17.40
2023-01-18T13:42:58.588Z,16.75
2023-01-18T13:48:54.408Z,17.75
2023-01-18T13:53:56.164Z,16.40
2023-01-18T13:59:12.743Z,16.55
2023-01-18T14:04:17.323Z,17.40
2023-01-18T14:09:42.196Z,18.63
2023-01-18T14:14:58.950Z,17.38
2023-01-18T14:20:28.603Z,18.95
2023-01-18T14:25:51.766Z,18.38
2023-01-18T14:30:58.610Z,16.90
2023-01-18T14:36:01.996Z,17.38
2023-01-18T14:41:07.525Z,17.17
2023-01-18T14:46:21.699Z,16.00
2023-01-18T14:51:26.638Z,17.88
2023-01-18T14:56:31.970Z,19.55
2023-01-18T15:01:37.737Z,19.38
2023-01-18T15:06:42.218Z,20.20
2023-01-18T15:11:44.797Z,18.80
2023-01-18T15:16:48.854Z,19.48
2023-01-18T15:21:51.054Z,16.67
2023-01-18T15:27:01.222Z,15.07
2023-01-18T15:32:19.337Z,14.65
2023-01-18T15:37:37.655Z,13.10
2023-01-18T15:42:44.789Z,12.52
2023-01-18T15:47:53.732Z,10.57
2023-01-18T15:53:06.762Z,10.25
2023-01-18T15:58:13.961Z,10.32
2023-01-18T16:03:21.840Z,10.27
2023-01-18T16:08:24.123Z,13.27
2023-01-18T16:13:40.092Z,10.35
2023-01-18T16:18:48.073Z,8.82
2023-01-18T16:23:52.426Z,7.18
2023-01-18T16:28:54.133Z,7.75
2023-01-18T16:33:55.700Z,8.23
2023-01-18T16:38:57.310Z,7.38
2023-01-18T16:44:03.660Z,7.40
2023-01-18T16:49:11.358Z,8.48
2023-01-18T16:54:13.014Z,7.68
2023-01-18T16:59:17.593Z,7.30
2023-01-18T17:04:19.193Z,7.55
2023-01-18T17:09:27.128Z,7.60
2023-01-18T17:14:29.550Z,7.13
2023-01-18T17:19:31.165Z,6.22
2023-01-18T17:24:33.056Z,6.65
2023-01-18T17:29:34.700Z,5.43
2023-01-18T17:34:36.305Z,5.07
2023-01-18T17:39:49.732Z,4.65
2023-01-18T17:45:09.872Z,4.68
2023-01-18T17:50:19.058Z,5.10
2023-01-18T17:55:24.464Z,6.55
2023-01-18T18:00:29.217Z,6.67
2023-01-18T18:05:30.897Z,6.43
2023-01-18T18:10:32.522Z,5.10
2023-01-18T18:15:34.188Z,5.00
2023-01-18T18:20:38.188Z,3.65
2023-01-18T18:25:40.373Z,4.00
2023-01-18T18:30:41.955Z,3.83
2023-01-18T18:35:43.542Z,3.55
2023-01-18T18:40:45.796Z,3.10
2023-01-18T18:45:47.741Z,2.75
2023-01-18T18:50:52.273Z,3.20
2023-01-18T18:56:00.287Z,3.15
2023-01-18T19:01:02.285Z,3.55
2023-01-18T19:06:04.002Z,3.63
2023-01-18T19:11:05.681Z,3.85
2023-01-18T19:16:07.781Z,3.72
2023-01-18T19:21:09.421Z,3.42
2023-01-18T19:26:11.043Z,3.30
2023-01-18T19:31:13.126Z,3.05
2023-01-18T19:36:15.511Z,3.60
2023-01-18T19:41:17.561Z,3.67
2023-01-18T19:46:20.253Z,3.63
2023-01-18T19:51:23.050Z,3.28
2023-01-18T19:56:25.747Z,3.28
2023-01-18T20:01:36.402Z,3.15
2023-01-18T20:06:39.507Z,3.47
2023-01-18T20:11:41.220Z,5.20
2023-01-18T20:16:44.907Z,4.15
2023-01-18T20:21:47.533Z,6.00
2023-01-18T20:26:49.141Z,8.13
2023-01-18T20:31:51.411Z,8.55
2023-01-18T20:36:53.089Z,9.95
2023-01-18T20:41:54.700Z,8.43
2023-01-18T20:46:57.425Z,9.05
2023-01-18T20:51:59.047Z,8.73
2023-01-18T20:57:00.637Z,8.57
2023-01-18T21:02:03.343Z,8.82
2023-01-18T21:07:05.230Z,8.25
2023-01-18T21:12:07.107Z,10.27
2023-01-18T21:17:08.887Z,8.25
2023-01-18T21:22:10.485Z,9.13
2023-01-18T21:27:12.694Z,10.27
2023-01-18T21:32:14.752Z,10.60
2023-01-18T21:37:16.365Z,11.93
2023-01-18T21:42:36.726Z,10.63
2023-01-18T21:47:38.314Z,10.43
2023-01-18T21:52:58.145Z,10.77
2023-01-18T21:58:18.304Z,11.23
2023-01-18T22:03:20.724Z,13.57
2023-01-18T22:08:22.319Z,13.23
2023-01-18T22:13:24.032Z,13.13
2023-01-18T22:18:25.627Z,13.75
2023-01-18T22:23:27.280Z,12.30
2023-01-18T22:28:28.896Z,13.85
2023-01-18T22:33:30.485Z,13.60
2023-01-18T22:38:32.438Z,12.38
2023-01-18T22:43:35.902Z,12.85
2023-01-18T22:48:38.180Z,12.45
2023-01-18T22:53:39.790Z,13.40
2023-01-18T22:58:41.675Z,14.20
2023-01-18T23:03:44.019Z,14.30
2023-01-18T23:08:47.286Z,14.30
2023-01-18T23:14:10.967Z,12.57
2023-01-18T23:19:12.556Z,12.70
2023-01-18T23:24:14.141Z,14.15
2023-01-18T23:29:16.241Z,14.32
2023-01-18T23:34:18.167Z,15.55
2023-01-18T23:39:38.382Z,14.52
2023-01-18T23:44:58.571Z,15.05
2023-01-18T23:50:18.727Z,14.35
2023-01-18T23:55:21.524Z,13.98
